sensor_id;sensor_type;location;lat;lon;timestamp;P1;durP1;ratioP1;P2;durP2;ratioP2
5297;SDS011;14738;42.668;23.250;2023-07-22T00:01:08;8.57;;;6.80;;
5297;SDS011;14738;42.668;23.250;2023-07-22T00:03:33;15.63;;;7.37;;
5297;SDS011;14738;42.668;23.250;2023-07-22T00:06:02;11.80;;;6.97;;
5297;SDS011;14738;42.668;23.250;2023-07-22T00:08:28;12.90;;;7.83;;
5297;SDS011;14738;42.668;23.250;2023-07-22T00:10:54;9.43;;;6.67;;
5297;SDS011;14738;42.668;23.250;2023-07-22T00:13:19;13.90;;;6.87;;
5297;SDS011;14738;42.668;23.250;2023-07-22T00:15:45;14.80;;;8.07;;
5297;SDS011;14738;42.668;23.250;2023-07-22T00:18:10;10.90;;;7.50;;
5297;SDS011;14738;42.668;23.250;2023-07-22T00:20:35;8.50;;;6.97;;
5297;SDS011;14738;42.668;23.250;2023-07-22T00:23:01;11.70;;;7.00;;
5297;SDS011;14738;42.668;23.250;2023-07-22T00:25:26;12.60;;;7.73;;
5297;SDS011;14738;42.668;23.250;2023-07-22T00:27:52;7.70;;;6.50;;
5297;SDS011;14738;42.668;23.250;2023-07-22T00:30:17;11.80;;;6.93;;
5297;SDS011;14738;42.668;23.250;2023-07-22T00:32:43;9.07;;;7.70;;
5297;SDS011;14738;42.668;23.250;2023-07-22T00:35:08;12.53;;;6.80;;
5297;SDS011;14738;42.668;23.250;2023-07-22T00:37:36;8.17;;;7.20;;
5297;SDS011;14738;42.668;23.250;2023-07-22T00:40:02;9.93;;;7.70;;
5297;SDS011;14738;42.668;23.250;2023-07-22T00:42:31;8.53;;;7.50;;
5297;SDS011;14738;42.668;23.250;2023-07-22T00:44:56;19.77;;;8.27;;
5297;SDS011;14738;42.668;23.250;2023-07-22T00:47:22;13.10;;;7.43;;
5297;SDS011;14738;42.668;23.250;2023-07-22T00:49:48;14.83;;;7.90;;
5297;SDS011;14738;42.668;23.250;2023-07-22T00:52:14;8.97;;;7.00;;
5297;SDS011;14738;42.668;23.250;2023-07-22T00:54:39;9.17;;;7.57;;
5297;SDS011;14738;42.668;23.250;2023-07-22T00:57:05;9.13;;;7.50;;
5297;SDS011;14738;42.668;23.250;2023-07-22T00:59:31;9.13;;;7.83;;
5297;SDS011;14738;42.668;23.250;2023-07-22T01:01:57;9.27;;;7.60;;
5297;SDS011;14738;42.668;23.250;2023-07-22T01:04:23;12.63;;;8.23;;
5297;SDS011;14738;42.668;23.250;2023-07-22T01:06:49;9.00;;;7.10;;
5297;SDS011;14738;42.668;23.250;2023-07-22T01:09:18;9.67;;;7.70;;
5297;SDS011;14738;42.668;23.250;2023-07-22T01:11:43;8.30;;;7.00;;
5297;SDS011;14738;42.668;23.250;2023-07-22T01:14:09;8.73;;;7.50;;
5297;SDS011;14738;42.668;23.250;2023-07-22T01:16:34;8.03;;;7.20;;
5297;SDS011;14738;42.668;23.250;2023-07-22T01:19:00;9.10;;;7.07;;
5297;SDS011;14738;42.668;23.250;2023-07-22T01:21:25;9.23;;;8.07;;
5297;SDS011;14738;42.668;23.250;2023-07-22T01:23:53;9.30;;;7.60;;
5297;SDS011;14738;42.668;23.250;2023-07-22T01:26:19;14.37;;;7.90;;
5297;SDS011;14738;42.668;23.250;2023-07-22T01:28:44;12.40;;;7.80;;
5297;SDS011;14738;42.668;23.250;2023-07-22T01:31:10;10.83;;;8.00;;
5297;SDS011;14738;42.668;23.250;2023-07-22T01:33:36;15.90;;;8.80;;
5297;SDS011;14738;42.668;23.250;2023-07-22T01:36:03;14.47;;;8.30;;
5297;SDS011;14738;42.668;23.250;2023-07-22T01:38:28;13.50;;;7.37;;
5297;SDS011;14738;42.668;23.250;2023-07-22T01:40:54;11.73;;;8.07;;
5297;SDS011;14738;42.668;23.250;2023-07-22T01:43:20;9.50;;;8.60;;
5297;SDS011;14738;42.668;23.250;2023-07-22T01:45:46;8.20;;;7.50;;
5297;SDS011;14738;42.668;23.250;2023-07-22T01:48:11;9.40;;;8.37;;
5297;SDS011;14738;42.668;23.250;2023-07-22T01:50:37;15.23;;;7.93;;
5297;SDS011;14738;42.668;23.250;2023-07-22T01:53:02;10.77;;;7.73;;
5297;SDS011;14738;42.668;23.250;2023-07-22T01:55:29;9.80;;;8.00;;
5297;SDS011;14738;42.668;23.250;2023-07-22T01:57:54;8.43;;;7.27;;
5297;SDS011;14738;42.668;23.250;2023-07-22T02:00:20;12.87;;;8.30;;
5297;SDS011;14738;42.668;23.250;2023-07-22T02:02:46;10.67;;;8.23;;
5297;SDS011;14738;42.668;23.250;2023-07-22T02:05:11;8.50;;;7.70;;
5297;SDS011;14738;42.668;23.250;2023-07-22T02:07:37;10.97;;;8.60;;
5297;SDS011;14738;42.668;23.250;2023-07-22T02:10:02;13.67;;;8.43;;
5297;SDS011;14738;42.668;23.250;2023-07-22T02:12:28;8.47;;;7.60;;
5297;SDS011;14738;42.668;23.250;2023-07-22T02:14:53;11.80;;;8.47;;
5297;SDS011;14738;42.668;23.250;2023-07-22T02:17:19;11.10;;;8.33;;
5297;SDS011;14738;42.668;23.250;2023-07-22T02:19:45;8.37;;;7.63;;
5297;SDS011;14738;42.668;23.250;2023-07-22T02:22:11;9.73;;;8.43;;
5297;SDS011;14738;42.668;23.250;2023-07-22T02:24:37;9.87;;;7.60;;
5297;SDS011;14738;42.668;23.250;2023-07-22T02:27:03;9.17;;;8.10;;
5297;SDS011;14738;42.668;23.250;2023-07-22T02:29:28;11.53;;;8.53;;
5297;SDS011;14738;42.668;23.250;2023-07-22T02:31:56;16.80;;;8.17;;
5297;SDS011;14738;42.668;23.250;2023-07-22T02:34:22;10.70;;;8.30;;
5297;SDS011;14738;42.668;23.250;2023-07-22T02:36:49;10.70;;;8.73;;
5297;SDS011;14738;42.668;23.250;2023-07-22T02:39:14;8.53;;;7.70;;
5297;SDS011;14738;42.668;23.250;2023-07-22T02:41:40;10.07;;;8.03;;
5297;SDS011;14738;42.668;23.250;2023-07-22T02:44:06;12.10;;;9.57;;
5297;SDS011;14738;42.668;23.250;2023-07-22T02:46:31;9.53;;;8.57;;
5297;SDS011;14738;42.668;23.250;2023-07-22T02:48:57;10.17;;;8.80;;
5297;SDS011;14738;42.668;23.250;2023-07-22T02:51:24;16.40;;;8.83;;
5297;SDS011;14738;42.668;23.250;2023-07-22T02:53:49;16.03;;;9.10;;
5297;SDS011;14738;42.668;23.250;2023-07-22T02:56:15;11.37;;;8.63;;
5297;SDS011;14738;42.668;23.250;2023-07-22T02:58:40;10.63;;;9.10;;
5297;SDS011;14738;42.668;23.250;2023-07-22T03:01:07;10.13;;;9.13;;
5297;SDS011;14738;42.668;23.250;2023-07-22T03:03:35;13.77;;;8.37;;
5297;SDS011;14738;42.668;23.250;2023-07-22T03:06:01;13.63;;;9.17;;
5297;SDS011;14738;42.668;23.250;2023-07-22T03:08:28;9.70;;;8.70;;
5297;SDS011;14738;42.668;23.250;2023-07-22T03:10:53;10.10;;;9.10;;
5297;SDS011;14738;42.668;23.250;2023-07-22T03:13:18;10.70;;;8.30;;
5297;SDS011;14738;42.668;23.250;2023-07-22T03:15:44;9.70;;;8.13;;
5297;SDS011;14738;42.668;23.250;2023-07-22T03:18:09;13.43;;;9.30;;
5297;SDS011;14738;42.668;23.250;2023-07-22T03:20:38;9.97;;;8.87;;
5297;SDS011;14738;42.668;23.250;2023-07-22T03:23:05;10.43;;;9.40;;
5297;SDS011;14738;42.668;23.250;2023-07-22T03:25:31;10.87;;;9.43;;
5297;SDS011;14738;42.668;23.250;2023-07-22T03:27:57;13.10;;;9.83;;
5297;SDS011;14738;42.668;23.250;2023-07-22T03:30:23;10.87;;;9.40;;
5297;SDS011;14738;42.668;23.250;2023-07-22T03:32:49;10.10;;;9.00;;
5297;SDS011;14738;42.668;23.250;2023-07-22T03:35:15;11.03;;;9.40;;
5297;SDS011;14738;42.668;23.250;2023-07-22T03:37:41;9.53;;;8.50;;
5297;SDS011;14738;42.668;23.250;2023-07-22T03:40:08;11.43;;;9.03;;
5297;SDS011;14738;42.668;23.250;2023-07-22T03:42:51;11.30;;;9.13;;
5297;SDS011;14738;42.668;23.250;2023-07-22T03:45:19;10.60;;;9.03;;
5297;SDS011;14738;42.668;23.250;2023-07-22T03:47:45;10.33;;;8.30;;
5297;SDS011;14738;42.668;23.250;2023-07-22T03:50:11;14.67;;;9.27;;
5297;SDS011;14738;42.668;23.250;2023-07-22T03:52:37;10.20;;;8.53;;
5297;SDS011;14738;42.668;23.250;2023-07-22T03:55:03;17.70;;;9.60;;
5297;SDS011;14738;42.668;23.250;2023-07-22T03:57:30;12.27;;;8.90;;
5297;SDS011;14738;42.668;23.250;2023-07-22T03:59:55;15.63;;;8.30;;
5297;SDS011;14738;42.668;23.250;2023-07-22T04:02:21;14.03;;;8.73;;
5297;SDS011;14738;42.668;23.250;2023-07-22T04:04:47;14.53;;;8.13;;
5297;SDS011;14738;42.668;23.250;2023-07-22T04:07:12;10.47;;;8.70;;
5297;SDS011;14738;42.668;23.250;2023-07-22T04:09:38;12.97;;;8.53;;
5297;SDS011;14738;42.668;23.250;2023-07-22T04:12:03;13.93;;;8.60;;
5297;SDS011;14738;42.668;23.250;2023-07-22T04:14:29;13.43;;;8.90;;
5297;SDS011;14738;42.668;23.250;2023-07-22T04:16:55;11.67;;;8.50;;
5297;SDS011;14738;42.668;23.250;2023-07-22T04:19:20;12.80;;;8.43;;
5297;SDS011;14738;42.668;23.250;2023-07-22T04:21:45;19.30;;;9.50;;
5297;SDS011;14738;42.668;23.250;2023-07-22T04:24:11;17.03;;;9.10;;
5297;SDS011;14738;42.668;23.250;2023-07-22T04:26:36;11.70;;;9.33;;
5297;SDS011;14738;42.668;23.250;2023-07-22T04:29:01;16.73;;;8.57;;
5297;SDS011;14738;42.668;23.250;2023-07-22T04:31:27;14.20;;;8.73;;
5297;SDS011;14738;42.668;23.250;2023-07-22T04:33:52;12.50;;;9.17;;
5297;SDS011;14738;42.668;23.250;2023-07-22T04:36:18;16.63;;;7.90;;
5297;SDS011;14738;42.668;23.250;2023-07-22T04:38:43;8.37;;;7.50;;
5297;SDS011;14738;42.668;23.250;2023-07-22T04:41:09;10.90;;;7.00;;
5297;SDS011;14738;42.668;23.250;2023-07-22T04:43:34;11.97;;;6.77;;
5297;SDS011;14738;42.668;23.250;2023-07-22T04:46:00;6.93;;;6.23;;
5297;SDS011;14738;42.668;23.250;2023-07-22T04:48:25;10.57;;;6.80;;
5297;SDS011;14738;42.668;23.250;2023-07-22T04:50:51;8.60;;;6.97;;
5297;SDS011;14738;42.668;23.250;2023-07-22T04:53:17;13.33;;;6.57;;
5297;SDS011;14738;42.668;23.250;2023-07-22T04:55:42;9.70;;;7.07;;
5297;SDS011;14738;42.668;23.250;2023-07-22T04:58:08;7.33;;;6.73;;
5297;SDS011;14738;42.668;23.250;2023-07-22T05:00:35;8.77;;;6.17;;
5297;SDS011;14738;42.668;23.250;2023-07-22T05:03:02;8.30;;;7.50;;
5297;SDS011;14738;42.668;23.250;2023-07-22T05:05:28;10.60;;;6.90;;
5297;SDS011;14738;42.668;23.250;2023-07-22T05:07:54;7.80;;;6.37;;
5297;SDS011;14738;42.668;23.250;2023-07-22T05:10:20;9.67;;;7.03;;
5297;SDS011;14738;42.668;23.250;2023-07-22T05:12:45;8.30;;;6.87;;
5297;SDS011;14738;42.668;23.250;2023-07-22T05:15:11;10.20;;;6.70;;
5297;SDS011;14738;42.668;23.250;2023-07-22T05:17:37;9.23;;;6.53;;
5297;SDS011;14738;42.668;23.250;2023-07-22T05:20:03;6.60;;;6.00;;
5297;SDS011;14738;42.668;23.250;2023-07-22T05:22:31;7.30;;;6.60;;
5297;SDS011;14738;42.668;23.250;2023-07-22T05:24:57;11.40;;;6.63;;
5297;SDS011;14738;42.668;23.250;2023-07-22T05:27:22;10.23;;;6.60;;
5297;SDS011;14738;42.668;23.250;2023-07-22T05:29:48;13.77;;;8.13;;
5297;SDS011;14738;42.668;23.250;2023-07-22T05:32:13;7.17;;;6.53;;
5297;SDS011;14738;42.668;23.250;2023-07-22T05:34:38;7.73;;;6.93;;
5297;SDS011;14738;42.668;23.250;2023-07-22T05:37:04;10.00;;;7.20;;
5297;SDS011;14738;42.668;23.250;2023-07-22T05:39:29;9.43;;;7.07;;
5297;SDS011;14738;42.668;23.250;2023-07-22T05:41:55;8.10;;;7.10;;
5297;SDS011;14738;42.668;23.250;2023-07-22T05:44:20;8.00;;;7.30;;
5297;SDS011;14738;42.668;23.250;2023-07-22T05:46:46;12.33;;;7.80;;
5297;SDS011;14738;42.668;23.250;2023-07-22T05:49:11;8.40;;;7.63;;
5297;SDS011;14738;42.668;23.250;2023-07-22T05:51:37;9.70;;;8.67;;
5297;SDS011;14738;42.668;23.250;2023-07-22T05:54:02;9.63;;;8.63;;
5297;SDS011;14738;42.668;23.250;2023-07-22T05:56:28;14.13;;;9.00;;
5297;SDS011;14738;42.668;23.250;2023-07-22T05:58:55;8.53;;;7.70;;
5297;SDS011;14738;42.668;23.250;2023-07-22T06:01:23;10.30;;;7.57;;
5297;SDS011;14738;42.668;23.250;2023-07-22T06:03:49;11.83;;;7.57;;
5297;SDS011;14738;42.668;23.250;2023-07-22T06:06:15;9.20;;;8.30;;
5297;SDS011;14738;42.668;23.250;2023-07-22T06:08:40;9.27;;;8.47;;
5297;SDS011;14738;42.668;23.250;2023-07-22T06:11:05;10.23;;;7.60;;
5297;SDS011;14738;42.668;23.250;2023-07-22T06:13:31;9.37;;;8.00;;
5297;SDS011;14738;42.668;23.250;2023-07-22T06:15:56;13.27;;;10.10;;
5297;SDS011;14738;42.668;23.250;2023-07-22T06:18:22;11.27;;;8.97;;
5297;SDS011;14738;42.668;23.250;2023-07-22T06:20:48;14.47;;;8.40;;
5297;SDS011;14738;42.668;23.250;2023-07-22T06:23:14;11.73;;;9.60;;
5297;SDS011;14738;42.668;23.250;2023-07-22T06:25:39;15.90;;;12.30;;
5297;SDS011;14738;42.668;23.250;2023-07-22T06:28:05;15.00;;;12.07;;
5297;SDS011;14738;42.668;23.250;2023-07-22T06:30:30;13.80;;;12.40;;
5297;SDS011;14738;42.668;23.250;2023-07-22T06:32:55;14.00;;;12.07;;
5297;SDS011;14738;42.668;23.250;2023-07-22T06:35:21;14.87;;;11.90;;
5297;SDS011;14738;42.668;23.250;2023-07-22T06:37:46;12.47;;;10.70;;
5297;SDS011;14738;42.668;23.250;2023-07-22T06:40:11;16.47;;;11.40;;
5297;SDS011;14738;42.668;23.250;2023-07-22T06:42:37;14.43;;;11.20;;
5297;SDS011;14738;42.668;23.250;2023-07-22T06:45:03;12.63;;;11.30;;
5297;SDS011;14738;42.668;23.250;2023-07-22T06:47:29;13.20;;;11.67;;
5297;SDS011;14738;42.668;23.250;2023-07-22T06:49:54;12.03;;;10.70;;
5297;SDS011;14738;42.668;23.250;2023-07-22T06:52:20;14.70;;;10.60;;
5297;SDS011;14738;42.668;23.250;2023-07-22T06:54:45;11.20;;;10.10;;
5297;SDS011;14738;42.668;23.250;2023-07-22T06:57:11;13.40;;;9.63;;
5297;SDS011;14738;42.668;23.250;2023-07-22T06:59:36;10.40;;;9.30;;
5297;SDS011;14738;42.668;23.250;2023-07-22T07:02:02;11.20;;;9.80;;
5297;SDS011;14738;42.668;23.250;2023-07-22T07:04:29;11.20;;;10.10;;
5297;SDS011;14738;42.668;23.250;2023-07-22T07:06:55;10.37;;;9.13;;
5297;SDS011;14738;42.668;23.250;2023-07-22T07:09:21;14.57;;;10.80;;
5297;SDS011;14738;42.668;23.250;2023-07-22T07:11:46;12.63;;;9.93;;
5297;SDS011;14738;42.668;23.250;2023-07-22T07:14:12;11.87;;;10.67;;
5297;SDS011;14738;42.668;23.250;2023-07-22T07:16:37;12.57;;;11.30;;
5297;SDS011;14738;42.668;23.250;2023-07-22T07:19:03;15.10;;;10.90;;
5297;SDS011;14738;42.668;23.250;2023-07-22T07:21:28;12.47;;;11.17;;
5297;SDS011;14738;42.668;23.250;2023-07-22T07:23:54;12.87;;;11.53;;
5297;SDS011;14738;42.668;23.250;2023-07-22T07:26:19;15.10;;;11.13;;
5297;SDS011;14738;42.668;23.250;2023-07-22T07:28:46;12.43;;;9.97;;
5297;SDS011;14738;42.668;23.250;2023-07-22T07:31:12;11.33;;;10.13;;
5297;SDS011;14738;42.668;23.250;2023-07-22T07:33:38;19.90;;;10.53;;
5297;SDS011;14738;42.668;23.250;2023-07-22T07:36:03;16.10;;;10.27;;
5297;SDS011;14738;42.668;23.250;2023-07-22T07:38:29;12.13;;;10.73;;
5297;SDS011;14738;42.668;23.250;2023-07-22T07:40:55;15.37;;;10.20;;
5297;SDS011;14738;42.668;23.250;2023-07-22T07:43:22;12.90;;;11.60;;
5297;SDS011;14738;42.668;23.250;2023-07-22T07:45:47;19.57;;;11.77;;
5297;SDS011;14738;42.668;23.250;2023-07-22T07:48:12;16.63;;;11.80;;
5297;SDS011;14738;42.668;23.250;2023-07-22T07:50:38;12.90;;;11.70;;
5297;SDS011;14738;42.668;23.250;2023-07-22T07:53:03;11.10;;;10.00;;
5297;SDS011;14738;42.668;23.250;2023-07-22T07:55:29;12.30;;;11.03;;
5297;SDS011;14738;42.668;23.250;2023-07-22T07:57:54;12.10;;;10.90;;
5297;SDS011;14738;42.668;23.250;2023-07-22T08:00:19;11.90;;;10.90;;
5297;SDS011;14738;42.668;23.250;2023-07-22T08:02:47;14.90;;;11.90;;
5297;SDS011;14738;42.668;23.250;2023-07-22T08:05:13;20.33;;;12.17;;
5297;SDS011;14738;42.668;23.250;2023-07-22T08:07:38;21.57;;;10.60;;
5297;SDS011;14738;42.668;23.250;2023-07-22T08:10:04;14.90;;;11.50;;
5297;SDS011;14738;42.668;23.250;2023-07-22T08:12:32;11.53;;;10.30;;
5297;SDS011;14738;42.668;23.250;2023-07-22T08:14:58;12.73;;;11.03;;
5297;SDS011;14738;42.668;23.250;2023-07-22T08:17:23;12.33;;;11.00;;
5297;SDS011;14738;42.668;23.250;2023-07-22T08:19:49;13.63;;;11.47;;
5297;SDS011;14738;42.668;23.250;2023-07-22T08:22:14;15.27;;;11.83;;
5297;SDS011;14738;42.668;23.250;2023-07-22T08:24:39;13.00;;;11.40;;
5297;SDS011;14738;42.668;23.250;2023-07-22T08:27:05;16.37;;;11.10;;
5297;SDS011;14738;42.668;23.250;2023-07-22T08:29:30;14.33;;;10.73;;
5297;SDS011;14738;42.668;23.250;2023-07-22T08:31:56;15.47;;;11.27;;
5297;SDS011;14738;42.668;23.250;2023-07-22T08:34:21;13.37;;;10.83;;
5297;SDS011;14738;42.668;23.250;2023-07-22T08:36:47;18.90;;;10.40;;
5297;SDS011;14738;42.668;23.250;2023-07-22T08:39:12;21.43;;;11.50;;
5297;SDS011;14738;42.668;23.250;2023-07-22T08:41:37;12.10;;;10.63;;
5297;SDS011;14738;42.668;23.250;2023-07-22T08:44:04;12.67;;;10.83;;
5297;SDS011;14738;42.668;23.250;2023-07-22T08:46:32;14.93;;;11.80;;
5297;SDS011;14738;42.668;23.250;2023-07-22T08:48:59;14.57;;;11.83;;
5297;SDS011;14738;42.668;23.250;2023-07-22T08:51:26;20.43;;;11.43;;
5297;SDS011;14738;42.668;23.250;2023-07-22T08:53:57;15.00;;;12.23;;
5297;SDS011;14738;42.668;23.250;2023-07-22T08:56:23;12.87;;;11.67;;
5297;SDS011;14738;42.668;23.250;2023-07-22T08:58:51;16.13;;;11.53;;
5297;SDS011;14738;42.668;23.250;2023-07-22T09:01:17;17.17;;;11.20;;
5297;SDS011;14738;42.668;23.250;2023-07-22T09:03:43;14.50;;;11.37;;
5297;SDS011;14738;42.668;23.250;2023-07-22T09:06:08;14.07;;;10.90;;
5297;SDS011;14738;42.668;23.250;2023-07-22T09:08:35;13.70;;;10.60;;
5297;SDS011;14738;42.668;23.250;2023-07-22T09:11:01;13.63;;;10.47;;
5297;SDS011;14738;42.668;23.250;2023-07-22T09:13:27;14.83;;;11.10;;
5297;SDS011;14738;42.668;23.250;2023-07-22T09:15:53;14.10;;;11.10;;
5297;SDS011;14738;42.668;23.250;2023-07-22T09:18:21;17.77;;;11.63;;
5297;SDS011;14738;42.668;23.250;2023-07-22T09:20:47;13.50;;;11.57;;
5297;SDS011;14738;42.668;23.250;2023-07-22T09:23:13;15.53;;;11.20;;
5297;SDS011;14738;42.668;23.250;2023-07-22T09:25:39;19.67;;;10.37;;
5297;SDS011;14738;42.668;23.250;2023-07-22T09:28:05;13.70;;;10.63;;
5297;SDS011;14738;42.668;23.250;2023-07-22T09:30:32;13.07;;;11.17;;
5297;SDS011;14738;42.668;23.250;2023-07-22T09:33:00;16.20;;;11.30;;
5297;SDS011;14738;42.668;23.250;2023-07-22T09:35:28;12.57;;;11.17;;
5297;SDS011;14738;42.668;23.250;2023-07-22T09:37:55;17.23;;;10.50;;
5297;SDS011;14738;42.668;23.250;2023-07-22T09:40:22;16.93;;;11.07;;
5297;SDS011;14738;42.668;23.250;2023-07-22T09:43:01;12.90;;;10.10;;
5297;SDS011;14738;42.668;23.250;2023-07-22T09:45:28;15.83;;;10.30;;
5297;SDS011;14738;42.668;23.250;2023-07-22T09:47:55;16.63;;;11.23;;
5297;SDS011;14738;42.668;23.250;2023-07-22T09:50:24;14.30;;;10.27;;
5297;SDS011;14738;42.668;23.250;2023-07-22T09:52:57;18.17;;;10.80;;
5297;SDS011;14738;42.668;23.250;2023-07-22T09:55:25;20.20;;;10.23;;
5297;SDS011;14738;42.668;23.250;2023-07-22T09:57:54;18.63;;;10.17;;
5297;SDS011;14738;42.668;23.250;2023-07-22T10:00:20;14.87;;;10.30;;
5297;SDS011;14738;42.668;23.250;2023-07-22T10:02:50;13.23;;;9.77;;
5297;SDS011;14738;42.668;23.250;2023-07-22T10:05:17;12.40;;;10.03;;
5297;SDS011;14738;42.668;23.250;2023-07-22T10:07:45;16.43;;;8.70;;
5297;SDS011;14738;42.668;23.250;2023-07-22T10:10:13;11.70;;;7.80;;
5297;SDS011;14738;42.668;23.250;2023-07-22T10:12:41;17.20;;;6.70;;
5297;SDS011;14738;42.668;23.250;2023-07-22T10:15:08;18.23;;;7.60;;
5297;SDS011;14738;42.668;23.250;2023-07-22T10:17:39;28.30;;;8.97;;
5297;SDS011;14738;42.668;23.250;2023-07-22T10:20:06;31.63;;;8.30;;
5297;SDS011;14738;42.668;23.250;2023-07-22T10:22:36;16.90;;;7.50;;
5297;SDS011;14738;42.668;23.250;2023-07-22T10:25:05;10.23;;;7.37;;
5297;SDS011;14738;42.668;23.250;2023-07-22T10:27:34;13.53;;;7.00;;
5297;SDS011;14738;42.668;23.250;2023-07-22T10:30:01;12.77;;;6.57;;
5297;SDS011;14738;42.668;23.250;2023-07-22T10:32:31;27.30;;;7.13;;
5297;SDS011;14738;42.668;23.250;2023-07-22T10:35:01;19.47;;;6.53;;
5297;SDS011;14738;42.668;23.250;2023-07-22T10:37:33;16.67;;;7.03;;
5297;SDS011;14738;42.668;23.250;2023-07-22T10:39:59;17.73;;;6.63;;
5297;SDS011;14738;42.668;23.250;2023-07-22T10:42:26;15.83;;;7.40;;
5297;SDS011;14738;42.668;23.250;2023-07-22T10:44:51;24.63;;;7.57;;
5297;SDS011;14738;42.668;23.250;2023-07-22T10:47:32;26.23;;;7.40;;
5297;SDS011;14738;42.668;23.250;2023-07-22T10:50:04;17.33;;;7.03;;
5297;SDS011;14738;42.668;23.250;2023-07-22T10:52:42;28.43;;;7.53;;
5297;SDS011;14738;42.668;23.250;2023-07-22T10:55:16;21.03;;;6.93;;
5297;SDS011;14738;42.668;23.250;2023-07-22T10:57:49;22.33;;;7.13;;
5297;SDS011;14738;42.668;23.250;2023-07-22T11:00:19;23.43;;;8.23;;
5297;SDS011;14738;42.668;23.250;2023-07-22T11:02:47;11.97;;;6.60;;
5297;SDS011;14738;42.668;23.250;2023-07-22T11:05:51;26.00;;;7.23;;
5297;SDS011;14738;42.668;23.250;2023-07-22T11:08:37;18.87;;;6.80;;
5297;SDS011;14738;42.668;23.250;2023-07-22T11:11:04;21.77;;;6.47;;
5297;SDS011;14738;42.668;23.250;2023-07-22T11:13:30;18.30;;;6.57;;
5297;SDS011;14738;42.668;23.250;2023-07-22T11:16:02;24.00;;;7.33;;
5297;SDS011;14738;42.668;23.250;2023-07-22T11:19:01;24.40;;;7.50;;
5297;SDS011;14738;42.668;23.250;2023-07-22T11:21:20;20.90;;;8.23;;
5297;SDS011;14738;42.668;23.250;2023-07-22T11:23:45;27.33;;;6.40;;
5297;SDS011;14738;42.668;23.250;2023-07-22T11:26:10;21.87;;;5.97;;
5297;SDS011;14738;42.668;23.250;2023-07-22T11:28:36;26.17;;;7.10;;
5297;SDS011;14738;42.668;23.250;2023-07-22T11:31:01;18.03;;;6.83;;
5297;SDS011;14738;42.668;23.250;2023-07-22T11:33:36;19.20;;;7.10;;
5297;SDS011;14738;42.668;23.250;2023-07-22T11:36:03;23.17;;;6.77;;
5297;SDS011;14738;42.668;23.250;2023-07-22T11:38:28;25.03;;;7.73;;
5297;SDS011;14738;42.668;23.250;2023-07-22T11:40:54;20.60;;;7.13;;
5297;SDS011;14738;42.668;23.250;2023-07-22T11:43:20;26.13;;;7.20;;
5297;SDS011;14738;42.668;23.250;2023-07-22T11:45:45;24.67;;;7.20;;
5297;SDS011;14738;42.668;23.250;2023-07-22T11:48:11;25.83;;;7.03;;
5297;SDS011;14738;42.668;23.250;2023-07-22T11:50:38;15.47;;;6.30;;
5297;SDS011;14738;42.668;23.250;2023-07-22T11:53:03;26.87;;;8.10;;
5297;SDS011;14738;42.668;23.250;2023-07-22T11:55:28;18.57;;;7.30;;
5297;SDS011;14738;42.668;23.250;2023-07-22T11:57:54;20.27;;;6.43;;
5297;SDS011;14738;42.668;23.250;2023-07-22T12:00:20;15.97;;;6.30;;
5297;SDS011;14738;42.668;23.250;2023-07-22T12:02:46;21.23;;;7.47;;
5297;SDS011;14738;42.668;23.250;2023-07-22T12:05:12;17.63;;;6.60;;
5297;SDS011;14738;42.668;23.250;2023-07-22T12:07:45;18.63;;;5.87;;
5297;SDS011;14738;42.668;23.250;2023-07-22T12:10:10;13.60;;;5.93;;
5297;SDS011;14738;42.668;23.250;2023-07-22T12:18:22;15.70;;;6.60;;
5297;SDS011;14738;42.668;23.250;2023-07-22T12:20:33;20.00;;;6.30;;
5297;SDS011;14738;42.668;23.250;2023-07-22T12:23:00;10.50;;;5.73;;
5297;SDS011;14738;42.668;23.250;2023-07-22T12:25:26;13.77;;;5.63;;
5297;SDS011;14738;42.668;23.250;2023-07-22T12:27:52;25.00;;;6.27;;
5297;SDS011;14738;42.668;23.250;2023-07-22T12:30:17;13.80;;;6.80;;
5297;SDS011;14738;42.668;23.250;2023-07-22T12:32:43;15.33;;;6.57;;
5297;SDS011;14738;42.668;23.250;2023-07-22T12:35:08;22.83;;;6.90;;
5297;SDS011;14738;42.668;23.250;2023-07-22T12:37:34;17.67;;;7.03;;
5297;SDS011;14738;42.668;23.250;2023-07-22T12:40:01;26.10;;;7.13;;
5297;SDS011;14738;42.668;23.250;2023-07-22T12:42:26;18.93;;;6.50;;
5297;SDS011;14738;42.668;23.250;2023-07-22T12:44:51;19.13;;;7.13;;
5297;SDS011;14738;42.668;23.250;2023-07-22T12:47:18;19.47;;;6.80;;
5297;SDS011;14738;42.668;23.250;2023-07-22T12:49:43;19.27;;;6.50;;
5297;SDS011;14738;42.668;23.250;2023-07-22T12:52:08;22.53;;;6.30;;
5297;SDS011;14738;42.668;23.250;2023-07-22T12:54:37;12.10;;;6.23;;
5297;SDS011;14738;42.668;23.250;2023-07-22T12:57:03;13.20;;;6.80;;
5297;SDS011;14738;42.668;23.250;2023-07-22T12:59:29;28.73;;;8.57;;
5297;SDS011;14738;42.668;23.250;2023-07-22T13:01:55;16.30;;;6.17;;
5297;SDS011;14738;42.668;23.250;2023-07-22T13:04:20;13.10;;;6.53;;
5297;SDS011;14738;42.668;23.250;2023-07-22T13:06:45;21.30;;;6.80;;
5297;SDS011;14738;42.668;23.250;2023-07-22T13:09:11;18.73;;;6.70;;
5297;SDS011;14738;42.668;23.250;2023-07-22T13:11:36;18.43;;;6.57;;
5297;SDS011;14738;42.668;23.250;2023-07-22T13:14:03;24.03;;;7.50;;
5297;SDS011;14738;42.668;23.250;2023-07-22T13:16:28;17.80;;;6.80;;
5297;SDS011;14738;42.668;23.250;2023-07-22T13:18:54;17.93;;;6.20;;
5297;SDS011;14738;42.668;23.250;2023-07-22T13:21:19;18.53;;;5.93;;
5297;SDS011;14738;42.668;23.250;2023-07-22T13:23:45;13.83;;;6.10;;
5297;SDS011;14738;42.668;23.250;2023-07-22T13:26:10;11.53;;;6.10;;
5297;SDS011;14738;42.668;23.250;2023-07-22T13:28:35;24.73;;;7.33;;
5297;SDS011;14738;42.668;23.250;2023-07-22T13:31:01;15.40;;;6.17;;
5297;SDS011;14738;42.668;23.250;2023-07-22T13:33:26;24.87;;;6.10;;
5297;SDS011;14738;42.668;23.250;2023-07-22T13:35:52;21.40;;;6.67;;
5297;SDS011;14738;42.668;23.250;2023-07-22T13:38:17;20.83;;;6.63;;
5297;SDS011;14738;42.668;23.250;2023-07-22T13:40:42;19.40;;;6.97;;
5297;SDS011;14738;42.668;23.250;2023-07-22T13:43:08;18.70;;;7.37;;
5297;SDS011;14738;42.668;23.250;2023-07-22T13:45:34;17.47;;;6.63;;
5297;SDS011;14738;42.668;23.250;2023-07-22T13:48:00;15.63;;;6.27;;
5297;SDS011;14738;42.668;23.250;2023-07-22T13:50:25;17.50;;;6.37;;
5297;SDS011;14738;42.668;23.250;2023-07-22T13:52:50;18.10;;;7.00;;
5297;SDS011;14738;42.668;23.250;2023-07-22T13:55:16;25.30;;;7.17;;
5297;SDS011;14738;42.668;23.250;2023-07-22T13:57:41;26.47;;;8.23;;
5297;SDS011;14738;42.668;23.250;2023-07-22T14:00:07;19.33;;;6.97;;
5297;SDS011;14738;42.668;23.250;2023-07-22T14:02:36;13.23;;;6.83;;
5297;SDS011;14738;42.668;23.250;2023-07-22T14:05:02;28.70;;;7.83;;
5297;SDS011;14738;42.668;23.250;2023-07-22T14:07:28;15.40;;;5.43;;
5297;SDS011;14738;42.668;23.250;2023-07-22T14:09:54;11.63;;;5.93;;
5297;SDS011;14738;42.668;23.250;2023-07-22T14:12:20;25.30;;;7.47;;
5297;SDS011;14738;42.668;23.250;2023-07-22T14:14:45;21.47;;;6.80;;
5297;SDS011;14738;42.668;23.250;2023-07-22T14:17:10;16.57;;;7.17;;
5297;SDS011;14738;42.668;23.250;2023-07-22T14:19:36;17.90;;;6.30;;
5297;SDS011;14738;42.668;23.250;2023-07-22T14:22:01;17.47;;;5.73;;
5297;SDS011;14738;42.668;23.250;2023-07-22T14:24:27;23.00;;;5.90;;
5297;SDS011;14738;42.668;23.250;2023-07-22T14:26:53;15.27;;;6.13;;
5297;SDS011;14738;42.668;23.250;2023-07-22T14:29:18;18.90;;;7.73;;
5297;SDS011;14738;42.668;23.250;2023-07-22T14:31:45;17.63;;;6.00;;
5297;SDS011;14738;42.668;23.250;2023-07-22T14:34:11;23.07;;;6.57;;